sensor_id;sensor_type;location;lat;lon;timestamp;P1;durP1;ratioP1;P2;durP2;ratioP2
46006;SDS011;31738;50.188;8.524;2023-03-26T00:00:39;8.38;;;1.60;;
46006;SDS011;31738;50.188;8.524;2023-03-26T00:03:08;10.60;;;2.15;;
46006;SDS011;31738;50.188;8.524;2023-03-26T00:05:36;6.75;;;1.50;;
46006;SDS011;31738;50.188;8.524;2023-03-26T00:08:02;9.13;;;1.83;;
46006;SDS011;31738;50.188;8.524;2023-03-26T00:10:28;10.23;;;1.70;;
46006;SDS011;31738;50.188;8.524;2023-03-26T00:12:54;6.90;;;1.90;;
46006;SDS011;31738;50.188;8.524;2023-03-26T00:15:19;6.78;;;1.40;;
46006;SDS011;31738;50.188;8.524;2023-03-26T00:17:45;7.43;;;1.67;;
46006;SDS011;31738;50.188;8.524;2023-03-26T00:20:11;8.07;;;2.03;;
46006;SDS011;31738;50.188;8.524;2023-03-26T00:22:38;8.48;;;1.80;;
46006;SDS011;31738;50.188;8.524;2023-03-26T00:25:04;9.05;;;1.73;;
46006;SDS011;31738;50.188;8.524;2023-03-26T00:27:31;9.88;;;1.88;;
46006;SDS011;31738;50.188;8.524;2023-03-26T00:29:58;5.90;;;1.83;;
46006;SDS011;31738;50.188;8.524;2023-03-26T00:32:26;11.00;;;1.75;;
46006;SDS011;31738;50.188;8.524;2023-03-26T00:34:53;9.55;;;1.65;;
46006;SDS011;31738;50.188;8.524;2023-03-26T00:37:20;8.38;;;1.83;;
46006;SDS011;31738;50.188;8.524;2023-03-26T00:39:51;10.18;;;2.08;;
46006;SDS011;31738;50.188;8.524;2023-03-26T00:42:23;10.02;;;1.63;;
46006;SDS011;31738;50.188;8.524;2023-03-26T00:44:50;7.35;;;1.92;;
46006;SDS011;31738;50.188;8.524;2023-03-26T00:47:22;13.35;;;2.03;;
46006;SDS011;31738;50.188;8.524;2023-03-26T00:49:48;7.95;;;1.80;;
46006;SDS011;31738;50.188;8.524;2023-03-26T00:52:15;7.18;;;1.70;;
46006;SDS011;31738;50.188;8.524;2023-03-26T00:54:43;6.57;;;1.70;;
46006;SDS011;31738;50.188;8.524;2023-03-26T00:57:10;10.18;;;1.80;;
46006;SDS011;31738;50.188;8.524;2023-03-26T00:59:37;12.32;;;1.80;;
46006;SDS011;31738;50.188;8.524;2023-03-26T01:02:04;11.35;;;2.03;;
46006;SDS011;31738;50.188;8.524;2023-03-26T01:04:32;8.68;;;2.13;;
46006;SDS011;31738;50.188;8.524;2023-03-26T01:07:12;6.93;;;1.85;;
46006;SDS011;31738;50.188;8.524;2023-03-26T01:09:42;8.88;;;1.70;;
46006;SDS011;31738;50.188;8.524;2023-03-26T01:12:15;9.15;;;2.08;;
46006;SDS011;31738;50.188;8.524;2023-03-26T01:14:45;9.55;;;2.05;;
46006;SDS011;31738;50.188;8.524;2023-03-26T01:17:11;10.30;;;2.10;;
46006;SDS011;31738;50.188;8.524;2023-03-26T01:19:43;10.00;;;2.47;;
46006;SDS011;31738;50.188;8.524;2023-03-26T01:22:15;14.50;;;2.05;;
46006;SDS011;31738;50.188;8.524;2023-03-26T01:24:42;10.20;;;1.75;;
46006;SDS011;31738;50.188;8.524;2023-03-26T01:27:14;10.90;;;2.15;;
46006;SDS011;31738;50.188;8.524;2023-03-26T01:32:25;35.70;;;15.23;;
46006;SDS011;31738;50.188;8.524;2023-03-26T01:43:32;12.55;;;2.20;;
46006;SDS011;31738;50.188;8.524;2023-03-26T01:46:08;11.23;;;2.60;;
46006;SDS011;31738;50.188;8.524;2023-03-26T01:48:38;9.43;;;2.30;;
46006;SDS011;31738;50.188;8.524;2023-03-26T01:51:07;18.02;;;2.17;;
46006;SDS011;31738;50.188;8.524;2023-03-26T01:53:34;9.13;;;2.15;;
46006;SDS011;31738;50.188;8.524;2023-03-26T02:04:21;8.80;;;1.80;;
46006;SDS011;31738;50.188;8.524;2023-03-26T02:10:12;15.70;;;2.65;;
46006;SDS011;31738;50.188;8.524;2023-03-26T02:12:42;10.68;;;2.17;;
46006;SDS011;31738;50.188;8.524;2023-03-26T02:15:09;8.75;;;1.95;;
46006;SDS011;31738;50.188;8.524;2023-03-26T02:17:35;12.13;;;2.38;;
46006;SDS011;31738;50.188;8.524;2023-03-26T02:20:05;11.52;;;2.13;;
46006;SDS011;31738;50.188;8.524;2023-03-26T02:22:36;7.95;;;1.75;;
46006;SDS011;31738;50.188;8.524;2023-03-26T02:25:09;8.25;;;1.92;;
46006;SDS011;31738;50.188;8.524;2023-03-26T02:27:37;9.30;;;2.30;;
46006;SDS011;31738;50.188;8.524;2023-03-26T02:30:07;5.78;;;1.85;;
46006;SDS011;31738;50.188;8.524;2023-03-26T02:32:35;8.60;;;2.10;;
46006;SDS011;31738;50.188;8.524;2023-03-26T02:35:01;8.45;;;2.17;;
46006;SDS011;31738;50.188;8.524;2023-03-26T02:37:30;8.55;;;2.03;;
46006;SDS011;31738;50.188;8.524;2023-03-26T02:40:06;8.85;;;2.10;;
46006;SDS011;31738;50.188;8.524;2023-03-26T02:42:36;8.52;;;2.10;;
46006;SDS011;31738;50.188;8.524;2023-03-26T02:45:02;11.80;;;2.00;;
46006;SDS011;31738;50.188;8.524;2023-03-26T02:47:47;8.00;;;1.85;;
46006;SDS011;31738;50.188;8.524;2023-03-26T02:50:35;7.72;;;1.88;;
46006;SDS011;31738;50.188;8.524;2023-03-26T02:53:21;10.70;;;1.92;;
46006;SDS011;31738;50.188;8.524;2023-03-26T02:55:52;9.18;;;1.92;;
46006;SDS011;31738;50.188;8.524;2023-03-26T02:58:19;12.10;;;2.45;;
46006;SDS011;31738;50.188;8.524;2023-03-26T03:00:44;8.98;;;1.92;;
46006;SDS011;31738;50.188;8.524;2023-03-26T03:03:26;11.77;;;2.00;;
46006;SDS011;31738;50.188;8.524;2023-03-26T03:05:57;8.98;;;1.75;;
46006;SDS011;31738;50.188;8.524;2023-03-26T03:08:29;12.80;;;2.20;;
46006;SDS011;31738;50.188;8.524;2023-03-26T03:11:15;11.95;;;1.95;;
46006;SDS011;31738;50.188;8.524;2023-03-26T03:13:46;8.70;;;1.83;;
46006;SDS011;31738;50.188;8.524;2023-03-26T03:16:16;9.55;;;2.08;;
46006;SDS011;31738;50.188;8.524;2023-03-26T03:18:41;10.02;;;2.15;;
46006;SDS011;31738;50.188;8.524;2023-03-26T03:21:07;11.80;;;2.17;;
46006;SDS011;31738;50.188;8.524;2023-03-26T03:23:33;17.55;;;2.63;;
46006;SDS011;31738;50.188;8.524;2023-03-26T03:26:14;8.20;;;1.80;;
46006;SDS011;31738;50.188;8.524;2023-03-26T03:28:48;9.05;;;2.03;;
46006;SDS011;31738;50.188;8.524;2023-03-26T03:31:15;13.38;;;2.40;;
46006;SDS011;31738;50.188;8.524;2023-03-26T03:33:42;6.70;;;1.80;;
46006;SDS011;31738;50.188;8.524;2023-03-26T03:36:09;8.18;;;2.10;;
46006;SDS011;31738;50.188;8.524;2023-03-26T03:38:37;12.75;;;2.38;;
46006;SDS011;31738;50.188;8.524;2023-03-26T03:41:03;7.85;;;2.28;;
46006;SDS011;31738;50.188;8.524;2023-03-26T03:43:33;10.18;;;2.20;;
46006;SDS011;31738;50.188;8.524;2023-03-26T03:46:08;9.13;;;2.42;;
46006;SDS011;31738;50.188;8.524;2023-03-26T03:48:37;11.93;;;2.13;;
46006;SDS011;31738;50.188;8.524;2023-03-26T03:51:04;20.60;;;2.90;;
46006;SDS011;31738;50.188;8.524;2023-03-26T03:53:45;6.57;;;2.28;;
46006;SDS011;31738;50.188;8.524;2023-03-26T03:56:13;10.82;;;2.20;;
46006;SDS011;31738;50.188;8.524;2023-03-26T03:59:04;12.07;;;2.10;;
46006;SDS011;31738;50.188;8.524;2023-03-26T04:01:33;8.18;;;2.00;;
46006;SDS011;31738;50.188;8.524;2023-03-26T04:04:06;9.82;;;1.98;;
46006;SDS011;31738;50.188;8.524;2023-03-26T04:06:44;18.08;;;2.38;;
46006;SDS011;31738;50.188;8.524;2023-03-26T04:09:12;9.40;;;2.05;;
46006;SDS011;31738;50.188;8.524;2023-03-26T04:11:38;10.80;;;2.30;;
46006;SDS011;31738;50.188;8.524;2023-03-26T04:14:21;10.63;;;1.75;;
46006;SDS011;31738;50.188;8.524;2023-03-26T04:17:02;7.53;;;1.83;;
46006;SDS011;31738;50.188;8.524;2023-03-26T04:19:31;14.95;;;2.22;;
46006;SDS011;31738;50.188;8.524;2023-03-26T04:21:57;8.05;;;2.20;;
46006;SDS011;31738;50.188;8.524;2023-03-26T04:24:29;9.05;;;2.30;;
46006;SDS011;31738;50.188;8.524;2023-03-26T04:27:17;16.45;;;2.80;;
46006;SDS011;31738;50.188;8.524;2023-03-26T04:29:49;10.93;;;2.50;;
46006;SDS011;31738;50.188;8.524;2023-03-26T04:32:27;11.98;;;2.17;;
46006;SDS011;31738;50.188;8.524;2023-03-26T04:34:55;12.27;;;2.40;;
46006;SDS011;31738;50.188;8.524;2023-03-26T04:37:25;12.55;;;2.58;;
46006;SDS011;31738;50.188;8.524;2023-03-26T04:40:06;8.32;;;2.13;;
46006;SDS011;31738;50.188;8.524;2023-03-26T04:42:41;10.85;;;2.85;;
46006;SDS011;31738;50.188;8.524;2023-03-26T04:45:17;9.88;;;2.28;;
46006;SDS011;31738;50.188;8.524;2023-03-26T04:47:51;15.35;;;3.42;;
46006;SDS011;31738;50.188;8.524;2023-03-26T04:50:16;11.48;;;2.60;;
46006;SDS011;31738;50.188;8.524;2023-03-26T04:52:42;9.73;;;2.65;;
46006;SDS011;31738;50.188;8.524;2023-03-26T04:55:41;10.25;;;2.40;;
46006;SDS011;31738;50.188;8.524;2023-03-26T04:58:19;8.90;;;2.55;;
46006;SDS011;31738;50.188;8.524;2023-03-26T05:00:57;16.13;;;2.78;;
46006;SDS011;31738;50.188;8.524;2023-03-26T05:03:26;17.20;;;3.03;;
46006;SDS011;31738;50.188;8.524;2023-03-26T05:05:59;9.43;;;2.63;;
46006;SDS011;31738;50.188;8.524;2023-03-26T05:08:26;13.13;;;3.58;;
46006;SDS011;31738;50.188;8.524;2023-03-26T05:10:54;12.18;;;2.83;;
46006;SDS011;31738;50.188;8.524;2023-03-26T05:13:27;11.20;;;2.60;;
46006;SDS011;31738;50.188;8.524;2023-03-26T05:15:55;17.55;;;2.70;;
46006;SDS011;31738;50.188;8.524;2023-03-26T05:18:44;17.40;;;3.53;;
46006;SDS011;31738;50.188;8.524;2023-03-26T05:21:11;16.85;;;3.58;;
46006;SDS011;31738;50.188;8.524;2023-03-26T05:23:38;18.27;;;3.55;;
46006;SDS011;31738;50.188;8.524;2023-03-26T05:26:16;14.10;;;3.40;;
46006;SDS011;31738;50.188;8.524;2023-03-26T05:28:42;17.38;;;4.05;;
46006;SDS011;31738;50.188;8.524;2023-03-26T05:31:17;15.57;;;3.50;;
46006;SDS011;31738;50.188;8.524;2023-03-26T05:33:46;15.73;;;3.50;;
46006;SDS011;31738;50.188;8.524;2023-03-26T05:36:12;16.75;;;3.80;;
46006;SDS011;31738;50.188;8.524;2023-03-26T05:38:42;18.30;;;4.25;;
46006;SDS011;31738;50.188;8.524;2023-03-26T05:41:37;15.93;;;4.37;;
46006;SDS011;31738;50.188;8.524;2023-03-26T05:44:05;16.33;;;4.03;;
46006;SDS011;31738;50.188;8.524;2023-03-26T05:46:31;15.43;;;4.47;;
46006;SDS011;31738;50.188;8.524;2023-03-26T05:48:57;15.00;;;4.43;;
46006;SDS011;31738;50.188;8.524;2023-03-26T05:51:23;13.60;;;4.20;;
46006;SDS011;31738;50.188;8.524;2023-03-26T05:54:17;17.45;;;4.55;;
46006;SDS011;31738;50.188;8.524;2023-03-26T05:57:01;15.60;;;4.50;;
46006;SDS011;31738;50.188;8.524;2023-03-26T05:59:45;15.15;;;5.13;;
46006;SDS011;31738;50.188;8.524;2023-03-26T06:02:41;17.42;;;4.47;;
46006;SDS011;31738;50.188;8.524;2023-03-26T06:05:21;19.98;;;4.75;;
46006;SDS011;31738;50.188;8.524;2023-03-26T06:08:05;16.95;;;4.75;;
46006;SDS011;31738;50.188;8.524;2023-03-26T06:10:36;17.98;;;4.63;;
46006;SDS011;31738;50.188;8.524;2023-03-26T06:13:02;15.77;;;4.35;;
46006;SDS011;31738;50.188;8.524;2023-03-26T06:15:28;15.90;;;4.03;;
46006;SDS011;31738;50.188;8.524;2023-03-26T06:17:59;17.02;;;3.47;;
46006;SDS011;31738;50.188;8.524;2023-03-26T06:21:03;11.02;;;3.42;;
46006;SDS011;31738;50.188;8.524;2023-03-26T06:23:39;18.83;;;3.28;;
46006;SDS011;31738;50.188;8.524;2023-03-26T06:26:05;20.52;;;3.65;;
46006;SDS011;31738;50.188;8.524;2023-03-26T06:29:05;19.42;;;3.78;;
46006;SDS011;31738;50.188;8.524;2023-03-26T06:31:51;16.00;;;4.03;;
46006;SDS011;31738;50.188;8.524;2023-03-26T06:34:20;13.98;;;3.53;;
46006;SDS011;31738;50.188;8.524;2023-03-26T06:36:46;20.75;;;3.92;;
46006;SDS011;31738;50.188;8.524;2023-03-26T06:39:13;17.63;;;4.20;;
46006;SDS011;31738;50.188;8.524;2023-03-26T06:41:48;16.88;;;3.92;;
46006;SDS011;31738;50.188;8.524;2023-03-26T06:44:34;13.25;;;3.63;;
46006;SDS011;31738;50.188;8.524;2023-03-26T06:47:18;13.65;;;3.75;;
46006;SDS011;31738;50.188;8.524;2023-03-26T06:50:07;14.32;;;3.78;;
46006;SDS011;31738;50.188;8.524;2023-03-26T06:52:37;17.17;;;3.75;;
46006;SDS011;31738;50.188;8.524;2023-03-26T06:55:21;18.20;;;3.90;;
46006;SDS011;31738;50.188;8.524;2023-03-26T06:58:00;15.50;;;3.78;;
46006;SDS011;31738;50.188;8.524;2023-03-26T07:00:45;19.60;;;4.07;;
46006;SDS011;31738;50.188;8.524;2023-03-26T07:03:29;13.48;;;3.35;;
46006;SDS011;31738;50.188;8.524;2023-03-26T07:06:13;15.35;;;3.42;;
46006;SDS011;31738;50.188;8.524;2023-03-26T07:09:11;17.10;;;3.83;;
46006;SDS011;31738;50.188;8.524;2023-03-26T07:11:55;15.68;;;3.85;;
46006;SDS011;31738;50.188;8.524;2023-03-26T07:14:40;18.73;;;3.35;;
46006;SDS011;31738;50.188;8.524;2023-03-26T07:17:24;13.35;;;3.25;;
46006;SDS011;31738;50.188;8.524;2023-03-26T07:20:13;16.35;;;3.50;;
46006;SDS011;31738;50.188;8.524;2023-03-26T07:22:39;17.80;;;3.50;;
46006;SDS011;31738;50.188;8.524;2023-03-26T07:25:12;20.70;;;3.50;;
46006;SDS011;31738;50.188;8.524;2023-03-26T07:28:12;15.77;;;3.05;;
46006;SDS011;31738;50.188;8.524;2023-03-26T07:33:56;18.25;;;3.75;;
46006;SDS011;31738;50.188;8.524;2023-03-26T07:36:42;19.13;;;3.50;;
46006;SDS011;31738;50.188;8.524;2023-03-26T07:39:51;14.77;;;3.10;;
46006;SDS011;31738;50.188;8.524;2023-03-26T07:45:50;15.30;;;3.30;;
46006;SDS011;31738;50.188;8.524;2023-03-26T07:48:28;18.85;;;3.42;;
46006;SDS011;31738;50.188;8.524;2023-03-26T07:53:55;18.08;;;4.00;;
46006;SDS011;31738;50.188;8.524;2023-03-26T07:56:57;16.60;;;3.90;;
46006;SDS011;31738;50.188;8.524;2023-03-26T07:59:44;18.17;;;4.40;;
46006;SDS011;31738;50.188;8.524;2023-03-26T08:15:20;13.98;;;4.80;;
46006;SDS011;31738;50.188;8.524;2023-03-26T08:17:48;15.90;;;4.93;;
46006;SDS011;31738;50.188;8.524;2023-03-26T08:20:30;13.15;;;5.13;;
46006;SDS011;31738;50.188;8.524;2023-03-26T08:31:13;15.77;;;6.70;;
46006;SDS011;31738;50.188;8.524;2023-03-26T08:33:39;17.55;;;5.93;;
46006;SDS011;31738;50.188;8.524;2023-03-26T08:36:05;15.98;;;6.70;;
46006;SDS011;31738;50.188;8.524;2023-03-26T08:38:32;18.33;;;6.80;;
46006;SDS011;31738;50.188;8.524;2023-03-26T08:49:44;18.48;;;7.65;;
46006;SDS011;31738;50.188;8.524;2023-03-26T08:57:47;25.33;;;9.82;;
46006;SDS011;31738;50.188;8.524;2023-03-26T09:03:38;17.23;;;8.75;;
46006;SDS011;31738;50.188;8.524;2023-03-26T09:09:02;25.27;;;10.70;;
46006;SDS011;31738;50.188;8.524;2023-03-26T09:23:14;24.75;;;8.90;;
46006;SDS011;31738;50.188;8.524;2023-03-26T09:28:43;24.38;;;8.07;;
46006;SDS011;31738;50.188;8.524;2023-03-26T09:31:38;17.15;;;6.07;;
46006;SDS011;31738;50.188;8.524;2023-03-26T09:34:26;19.20;;;6.28;;
46006;SDS011;31738;50.188;8.524;2023-03-26T09:37:03;16.95;;;5.05;;
46006;SDS011;31738;50.188;8.524;2023-03-26T09:44:48;21.27;;;5.15;;
46006;SDS011;31738;50.188;8.524;2023-03-26T09:47:39;12.38;;;4.82;;
46006;SDS011;31738;50.188;8.524;2023-03-26T09:56:11;13.20;;;3.95;;
46006;SDS011;31738;50.188;8.524;2023-03-26T10:01:29;11.30;;;3.50;;
46006;SDS011;31738;50.188;8.524;2023-03-26T10:04:21;11.50;;;3.58;;
46006;SDS011;31738;50.188;8.524;2023-03-26T10:07:18;10.48;;;2.70;;
46006;SDS011;31738;50.188;8.524;2023-03-26T10:12:34;10.88;;;3.42;;
46006;SDS011;31738;50.188;8.524;2023-03-26T10:15:13;11.03;;;3.60;;
46006;SDS011;31738;50.188;8.524;2023-03-26T10:26:34;9.50;;;4.35;;
46006;SDS011;31738;50.188;8.524;2023-03-26T10:29:07;11.27;;;4.13;;
46006;SDS011;31738;50.188;8.524;2023-03-26T10:31:51;14.05;;;4.03;;
46006;SDS011;31738;50.188;8.524;2023-03-26T10:34:43;14.27;;;4.25;;
46006;SDS011;31738;50.188;8.524;2023-03-26T10:40:20;13.55;;;4.63;;
46006;SDS011;31738;50.188;8.524;2023-03-26T10:51:45;18.60;;;5.40;;
46006;SDS011;31738;50.188;8.524;2023-03-26T10:54:23;13.07;;;5.65;;
46006;SDS011;31738;50.188;8.524;2023-03-26T10:56:59;21.93;;;5.50;;
46006;SDS011;31738;50.188;8.524;2023-03-26T10:59:26;16.23;;;5.63;;
46006;SDS011;31738;50.188;8.524;2023-03-26T11:04:51;15.35;;;6.18;;
46006;SDS011;31738;50.188;8.524;2023-03-26T11:11:21;11.68;;;5.65;;
46006;SDS011;31738;50.188;8.524;2023-03-26T11:14:14;15.27;;;6.90;;
46006;SDS011;31738;50.188;8.524;2023-03-26T11:24:56;16.60;;;4.80;;
46006;SDS011;31738;50.188;8.524;2023-03-26T11:30:02;11.05;;;4.65;;
46006;SDS011;31738;50.188;8.524;2023-03-26T11:32:52;18.63;;;5.28;;
46006;SDS011;31738;50.188;8.524;2023-03-26T11:38:03;11.60;;;4.97;;
46006;SDS011;31738;50.188;8.524;2023-03-26T11:40:34;11.50;;;4.93;;
46006;SDS011;31738;50.188;8.524;2023-03-26T11:43:05;21.30;;;4.93;;
46006;SDS011;31738;50.188;8.524;2023-03-26T11:45:35;15.93;;;5.00;;
46006;SDS011;31738;50.188;8.524;2023-03-26T11:48:13;11.88;;;5.18;;
46006;SDS011;31738;50.188;8.524;2023-03-26T11:50:45;11.52;;;5.75;;
46006;SDS011;31738;50.188;8.524;2023-03-26T11:53:21;14.88;;;5.15;;
46006;SDS011;31738;50.188;8.524;2023-03-26T11:55:56;14.73;;;4.85;;
46006;SDS011;31738;50.188;8.524;2023-03-26T11:58:53;12.75;;;5.00;;
46006;SDS011;31738;50.188;8.524;2023-03-26T12:01:24;10.73;;;4.55;;
46006;SDS011;31738;50.188;8.524;2023-03-26T12:04:02;10.52;;;3.72;;
46006;SDS011;31738;50.188;8.524;2023-03-26T12:06:37;13.10;;;3.95;;
46006;SDS011;31738;50.188;8.524;2023-03-26T12:09:03;7.68;;;3.70;;
46006;SDS011;31738;50.188;8.524;2023-03-26T12:11:40;12.20;;;4.50;;
46006;SDS011;31738;50.188;8.524;2023-03-26T12:14:06;8.63;;;3.50;;
46006;SDS011;31738;50.188;8.524;2023-03-26T12:16:32;8.30;;;4.30;;
46006;SDS011;31738;50.188;8.524;2023-03-26T12:21:43;8.02;;;3.42;;
46006;SDS011;31738;50.188;8.524;2023-03-26T12:24:23;7.78;;;4.15;;
46006;SDS011;31738;50.188;8.524;2023-03-26T12:26:57;9.25;;;3.28;;
46006;SDS011;31738;50.188;8.524;2023-03-26T12:29:26;5.90;;;2.13;;
46006;SDS011;31738;50.188;8.524;2023-03-26T12:32:05;5.30;;;2.10;;
46006;SDS011;31738;50.188;8.524;2023-03-26T12:34:37;3.58;;;1.23;;
46006;SDS011;31738;50.188;8.524;2023-03-26T12:37:04;4.45;;;1.30;;
46006;SDS011;31738;50.188;8.524;2023-03-26T12:39:38;3.10;;;1.00;;
46006;SDS011;31738;50.188;8.524;2023-03-26T12:42:25;3.33;;;0.90;;
46006;SDS011;31738;50.188;8.524;2023-03-26T12:44:54;2.28;;;0.80;;
46006;SDS011;31738;50.188;8.524;2023-03-26T12:47:22;1.83;;;0.80;;
46006;SDS011;31738;50.188;8.524;2023-03-26T12:49:51;4.55;;;0.80;;
46006;SDS011;31738;50.188;8.524;2023-03-26T12:52:23;2.33;;;0.50;;
46006;SDS011;31738;50.188;8.524;2023-03-26T12:58:26;2.42;;;0.70;;
46006;SDS011;31738;50.188;8.524;2023-03-26T13:01:06;3.90;;;0.90;;
46006;SDS011;31738;50.188;8.524;2023-03-26T13:04:03;3.88;;;1.00;;
46006;SDS011;31738;50.188;8.524;2023-03-26T13:06:38;2.95;;;0.98;;
46006;SDS011;31738;50.188;8.524;2023-03-26T13:09:55;4.85;;;0.90;;
46006;SDS011;31738;50.188;8.524;2023-03-26T13:12:04;3.10;;;1.00;;
46006;SDS011;31738;50.188;8.524;2023-03-26T13:14:44;3.17;;;1.20;;
46006;SDS011;31738;50.188;8.524;2023-03-26T13:19:50;3.88;;;1.23;;
46006;SDS011;31738;50.188;8.524;2023-03-26T13:25:30;1.75;;;0.90;;
46006;SDS011;31738;50.188;8.524;2023-03-26T13:30:38;5.13;;;1.00;;
46006;SDS011;31738;50.188;8.524;2023-03-26T13:33:15;3.83;;;1.13;;
46006;SDS011;31738;50.188;8.524;2023-03-26T13:36:19;2.03;;;0.70;;
46006;SDS011;31738;50.188;8.524;2023-03-26T13:41:15;3.45;;;0.80;;
46006;SDS011;31738;50.188;8.524;2023-03-26T13:43:47;4.45;;;0.70;;
46006;SDS011;31738;50.188;8.524;2023-03-26T13:46:33;2.67;;;0.77;;
46006;SDS011;31738;50.188;8.524;2023-03-26T13:51:41;2.85;;;0.82;;
46006;SDS011;31738;50.188;8.524;2023-03-26T13:56:58;2.25;;;0.68;;
46006;SDS011;31738;50.188;8.524;2023-03-26T13:59:55;3.30;;;0.90;;
46006;SDS011;31738;50.188;8.524;2023-03-26T14:02:41;3.30;;;1.30;;
46006;SDS011;31738;50.188;8.524;2023-03-26T14:05:09;5.18;;;1.00;;
46006;SDS011;31738;50.188;8.524;2023-03-26T14:07:49;3.75;;;0.65;;
46006;SDS011;31738;50.188;8.524;2023-03-26T14:10:23;2.80;;;1.50;;
46006;SDS011;31738;50.188;8.524;2023-03-26T14:15:23;1.58;;;0.70;;
46006;SDS011;31738;50.188;8.524;2023-03-26T14:34:58;1.95;;;0.47;;
46006;SDS011;31738;50.188;8.524;2023-03-26T14:46:39;4.00;;;0.85;;
46006;SDS011;31738;50.188;8.524;2023-03-26T14:52:03;4.18;;;0.90;;
46006;SDS011;31738;50.188;8.524;2023-03-26T14:54:35;3.00;;;1.33;;
46006;SDS011;31738;50.188;8.524;2023-03-26T14:59:46;3.28;;;0.82;;
46006;SDS011;31738;50.188;8.524;2023-03-26T15:02:48;3.03;;;0.95;;
46006;SDS011;31738;50.188;8.524;2023-03-26T15:11:15;3.92;;;0.85;;
46006;SDS011;31738;50.188;8.524;2023-03-26T15:13:52;4.80;;;1.00;;
46006;SDS011;31738;50.188;8.524;2023-03-26T15:49:04;0.45;;;0.10;;
46006;SDS011;31738;50.188;8.524;2023-03-26T15:51:57;4.32;;;0.30;;
46006;SDS011;31738;50.188;8.524;2023-03-26T15:54:29;0.77;;;0.30;;
46006;SDS011;31738;50.188;8.524;2023-03-26T16:00:10;1.77;;;0.40;;
46006;SDS011;31738;50.188;8.524;2023-03-26T16:05:39;6.47;;;3.83;;
46006;SDS011;31738;50.188;8.524;2023-03-26T16:11:11;2.55;;;1.70;;
46006;SDS011;31738;50.188;8.524;2023-03-26T16:21:55;2.10;;;1.45;;
46006;SDS011;31738;50.188;8.524;2023-03-26T16:24:25;1.67;;;1.02;;
46006;SDS011;31738;50.188;8.524;2023-03-26T16:32:51;1.48;;;0.50;;
46006;SDS011;31738;50.188;8.524;2023-03-26T16:38:10;1.27;;;0.60;;
46006;SDS011;31738;50.188;8.524;2023-03-26T16:40:49;1.95;;;0.43;;
46006;SDS011;31738;50.188;8.524;2023-03-26T16:43:39;2.33;;;0.47;;
46006;SDS011;31738;50.188;8.524;2023-03-26T16:51:47;1.40;;;0.60;;
46006;SDS011;31738;50.188;8.524;2023-03-26T16:54:23;1.88;;;0.80;;
46006;SDS011;31738;50.188;8.524;2023-03-26T17:03:00;3.15;;;1.48;;
46006;SDS011;31738;50.188;8.524;2023-03-26T17:08:33;5.25;;;1.92;;
46006;SDS011;31738;50.188;8.524;2023-03-26T17:13:46;4.35;;;2.30;;
46006;SDS011;31738;50.188;8.524;2023-03-26T17:16:38;2.35;;;1.10;;
46006;SDS011;31738;50.188;8.524;2023-03-26T17:22:44;1.30;;;0.70;;
46006;SDS011;31738;50.188;8.524;2023-03-26T17:31:39;2.60;;;0.88;;
46006;SDS011;31738;50.188;8.524;2023-03-26T17:36:56;2.72;;;1.02;;
46006;SDS011;31738;50.188;8.524;2023-03-26T17:47:44;3.03;;;1.27;;
46006;SDS011;31738;50.188;8.524;2023-03-26T17:50:15;2.90;;;1.08;;
46006;SDS011;31738;50.188;8.524;2023-03-26T17:55:29;0.88;;;0.60;;
46006;SDS011;31738;50.188;8.524;2023-03-26T17:57:57;1.98;;;0.70;;
46006;SDS011;31738;50.188;8.524;2023-03-26T18:00:32;2.25;;;1.05;;
46006;SDS011;31738;50.188;8.524;2023-03-26T18:03:05;3.17;;;1.40;;
46006;SDS011;31738;50.188;8.524;2023-03-26T18:05:41;3.95;;;1.80;;
46006;SDS011;31738;50.188;8.524;2023-03-26T18:08:12;3.88;;;1.63;;
46006;SDS011;31738;50.188;8.524;2023-03-26T18:11:05;2.13;;;0.82;;
46006;SDS011;31738;50.188;8.524;2023-03-26T18:13:44;2.40;;;1.67;;
46006;SDS011;31738;50.188;8.524;2023-03-26T18:16:19;4.55;;;2.40;;
46006;SDS011;31738;50.188;8.524;2023-03-26T18:19:03;1.73;;;1.10;;
46006;SDS011;31738;50.188;8.524;2023-03-26T18:21:41;3.30;;;1.55;;
46006;SDS011;31738;50.188;8.524;2023-03-26T18:24:12;1.48;;;0.80;;
46006;SDS011;31738;50.188;8.524;2023-03-26T18:26:42;1.70;;;0.60;;
46006;SDS011;31738;50.188;8.524;2023-03-26T18:29:24;0.77;;;0.60;;
46006;SDS011;31738;50.188;8.524;2023-03-26T18:31:55;1.27;;;0.50;;
46006;SDS011;31738;50.188;8.524;2023-03-26T18:34:25;0.70;;;0.60;;
46006;SDS011;31738;50.188;8.524;2023-03-26T18:39:43;0.85;;;0.63;;
46006;SDS011;31738;50.188;8.524;2023-03-26T18:42:21;0.93;;;0.68;;
46006;SDS011;31738;50.188;8.524;2023-03-26T18:44:48;1.85;;;0.85;;
46006;SDS011;31738;50.188;8.524;2023-03-26T18:47:15;1.13;;;0.80;;
46006;SDS011;31738;50.188;8.524;2023-03-26T18:49:42;1.20;;;1.00;;
46006;SDS011;31738;50.188;8.524;2023-03-26T18:52:12;2.83;;;1.80;;
46006;SDS011;31738;50.188;8.524;2023-03-26T18:54:40;1.92;;;1.25;;
46006;SDS011;31738;50.188;8.524;2023-03-26T18:57:08;1.38;;;0.73;;
46006;SDS011;31738;50.188;8.524;2023-03-26T18:59:35;1.67;;;0.80;;
46006;SDS011;31738;50.188;8.524;2023-03-26T19:02:03;1.27;;;0.73;;
46006;SDS011;31738;50.188;8.524;2023-03-26T19:04:34;1.77;;;0.63;;
46006;SDS011;31738;50.188;8.524;2023-03-26T19:07:01;1.65;;;0.80;;
46006;SDS011;31738;50.188;8.524;2023-03-26T19:09:30;1.70;;;0.95;;
46006;SDS011;31738;50.188;8.524;2023-03-26T19:11:58;2.70;;;1.17;;
46006;SDS011;31738;50.188;8.524;2023-03-26T19:17:41;2.50;;;1.40;;
46006;SDS011;31738;50.188;8.524;2023-03-26T19:20:23;2.85;;;1.75;;
46006;SDS011;31738;50.188;8.524;2023-03-26T19:22:51;4.03;;;1.92;;
46006;SDS011;31738;50.188;8.524;2023-03-26T19:25:21;3.40;;;1.83;;
46006;SDS011;31738;50.188;8.524;2023-03-26T19:27:50;3.35;;;2.05;;
46006;SDS011;31738;50.188;8.524;2023-03-26T19:30:17;2.67;;;1.90;;
46006;SDS011;31738;50.188;8.524;2023-03-26T19:32:53;2.95;;;2.03;;
46006;SDS011;31738;50.188;8.524;2023-03-26T19:35:20;3.00;;;1.73;;
46006;SDS011;31738;50.188;8.524;2023-03-26T19:37:49;1.98;;;1.50;;
46006;SDS011;31738;50.188;8.524;2023-03-26T19:40:19;4.57;;;2.00;;
46006;SDS011;31738;50.188;8.524;2023-03-26T19:42:46;2.83;;;1.73;;
46006;SDS011;31738;50.188;8.524;2023-03-26T19:45:14;2.95;;;1.83;;
46006;SDS011;31738;50.188;8.524;2023-03-26T19:47:42;2.80;;;2.17;;
46006;SDS011;31738;50.188;8.524;2023-03-26T19:50:28;4.32;;;2.83;;
46006;SDS011;31738;50.188;8.524;2023-03-26T19:55:35;4.43;;;2.47;;
46006;SDS011;31738;50.188;8.524;2023-03-26T19:58:02;2.95;;;2.03;;
46006;SDS011;31738;50.188;8.524;2023-03-26T20:00:28;1.30;;;1.20;;
46006;SDS011;31738;50.188;8.524;2023-03-26T20:02:54;1.58;;;1.00;;
46006;SDS011;31738;50.188;8.524;2023-03-26T20:05:21;1.05;;;0.80;;
46006;SDS011;31738;50.188;8.524;2023-03-26T20:07:51;0.85;;;0.70;;
46006;SDS011;31738;50.188;8.524;2023-03-26T20:10:20;1.45;;;0.70;;
46006;SDS011;31738;50.188;8.524;2023-03-26T20:12:46;2.33;;;0.75;;
46006;SDS011;31738;50.188;8.524;2023-03-26T20:17:43;0.70;;;0.70;;
46006;SDS011;31738;50.188;8.524;2023-03-26T20:20:11;1.48;;;0.90;;
46006;SDS011;31738;50.188;8.524;2023-03-26T20:22:40;1.00;;;0.70;;
46006;SDS011;31738;50.188;8.524;2023-03-26T20:27:52;1.85;;;1.13;;
46006;SDS011;31738;50.188;8.524;2023-03-26T20:30:20;2.45;;;0.93;;
46006;SDS011;31738;50.188;8.524;2023-03-26T20:32:47;2.15;;;1.00;;
46006;SDS011;31738;50.188;8.524;2023-03-26T20:35:22;1.50;;;0.90;;
46006;SDS011;31738;50.188;8.524;2023-03-26T20:37:48;1.45;;;0.88;;
46006;SDS011;31738;50.188;8.524;2023-03-26T20:40:15;1.40;;;0.88;;
46006;SDS011;31738;50.188;8.524;2023-03-26T20:42:44;1.80;;;0.82;;